ESSP/NRK METAR and TAF weather

Enter ICAO airport designator
Station Type Date Time Source
ESSP METAR 2018/04/19 13:20 UTC NOAA

ESSP 191320Z 27006KT 230V310 CAVOK 19/08 Q1028


Station Type Date Time Source
ESSP Decoded METAR 2018/04/19 13:20 UTC NOAA

Norrkoping, Sweden (ESSP) 58-35N 016-09E 0M
Apr 19, 2018 - 09:20 AM EDT / 2018.04.19 1320 UTC
Wind: from the W (270 degrees) at 7 MPH (6 KT) (direction variable):0
Visibility: greater than 7 mile(s):0
Temperature: 66 F (19 C)
Dew Point: 46 F (8 C)
Relative Humidity: 48%
Pressure (altimeter): 30.36 in. Hg (1028 hPa)
ob: ESSP 191320Z 27006KT 230V310 CAVOK 19/08 Q1028
cycle: 13

Station Type Date Time Source
ESSP TAF 2018/01/01 02:31 UTC NOAA

TAF ESSP 010130Z 0102/0206 16002KT 9999 BKN004 PROB40 0102/0106 4000 BR SCT004


Example: see airport list